Impacts TAF Board INFO
FOR SITUATIONAL AWARENESS. NOT TO BE USED FOR FLIGHT PLANNING PURPOSES.
IDs:

KCLT - Charlotte/Douglas In, NC, US

Issued at 0739 UTC 17 Dec 2017
Updated at 0811 UTC 17 Dec 2017
Potential Impact None Slight Moderate High
Time0752Z 17/09Z 17/10Z 17/11Z 17/12Z 17/13Z 17/14Z 17/15Z 17/16Z 17/17Z 17/18Z 17/19Z 17/20Z 17/21Z>>
Type OBS PRVL PRVL PRVL PRVL PRVL PRVL PRVL PRVL PRVL PRVL PRVL PRVL PRVL
VIS 10 >6 >6 >6 >6 >6 >6 >6 >6 >6 >6 >6 >6 >6
CIG -- -- -- -- -- -- -- -- 250 250 250 250 250 250
Cover FEW FEW FEW FEW FEW FEW FEW FEW BKN BKN BKN BKN BKN BKN
FltCat VFR VFR VFR VFR VFR VFR VFR VFR VFR VFR VFR VFR VFR VFR
WX -- -- -- -- -- -- -- -- -- -- -- -- -- --
WDir VRB 150 150 150 150 150 150 150 200 200 200 200 200 200
WSpd 0 3 3 3 3 3 3 3 4 4 4 4 4 4
WGst -- -- -- -- -- -- -- -- -- -- -- -- -- --

Raw TAF
KCLT 170739Z 1708/1812 15003KT P6SM FEW250
  FM171600 20004KT P6SM BKN250
  FM180400 VRB03KT P6SM BKN120


Raw METAR
KCLT 170752Z 00000KT 10SM FEW250 M01/M04 A3027 RMK AO2 SLP252 T10061039
KCLT 170652Z 15003KT 10SM FEW250 01/M04 A3027 RMK AO2 SLP251 T00111039
KCLT 170552Z 14004KT 10SM FEW250 01/M04 A3027 RMK AO2 SLP251 T00111039 10056 20006 50002

METAR Board
Radar Display
Forecast Discussion

FOR SITUATIONAL AWARENESS. NOT TO BE USED FOR FLIGHT PLANNING PURPOSES.